Time;durP1;ratioP1;P1;durP2;ratioP2;P2;SDS_P1;SDS_P2;PMS_P1;PMS_P2;Temp;Humidity;BMP_temperature;BMP_pressure;BME280_temperature;BME280_humidity;BME280_pressure;Samples;Min_cycle;Max_cycle;Signal;HPM_P1;HPM_P2
2022/04/18 00:01:37;;;;;;;;;3.25;3.25;;;;;;;;5071747;28;49747;-69
2022/04/18 00:04:03;;;;;;;;;4.75;4.00;;;;;;;;5071844;27;49954;-69
2022/04/18 00:06:28;;;;;;;;;4.00;3.00;;;;;;;;5071302;28;49690;-70
2022/04/18 00:08:53;;;;;;;;;0.00;0.00;;;;;;;;5071521;27;49767;-69
2022/04/18 00:11:19;;;;;;;;;3.25;2.25;;;;;;;;5071758;28;49840;-69
2022/04/18 00:13:44;;;;;;;;;1.25;1.25;;;;;;;;5071519;28;49717;-69
2022/04/18 00:16:09;;;;;;;;;1.50;1.00;;;;;;;;5071213;28;49871;-69
2022/04/18 00:18:34;;;;;;;;;3.00;3.00;;;;;;;;5053064;28;49961;-69
2022/04/18 00:20:59;;;;;;;;;3.00;3.00;;;;;;;;5071264;28;49695;-69
2022/04/18 00:23:25;;;;;;;;;1.75;1.75;;;;;;;;5071370;28;49966;-69
2022/04/18 00:25:50;;;;;;;;;2.75;2.50;;;;;;;;5071013;27;50471;-70
2022/04/18 00:28:15;;;;;;;;;1.00;1.00;;;;;;;;5071038;28;49772;-68
2022/04/18 00:30:41;;;;;;;;;2.50;2.00;;;;;;;;5071515;28;49815;-69
2022/04/18 00:33:08;;;;;;;;;4.00;2.75;;;;;;;;5070292;28;49969;-70
2022/04/18 00:35:34;;;;;;;;;1.00;1.00;;;;;;;;5052735;28;51813;-69
2022/04/18 00:37:59;;;;;;;;;5.00;3.75;;;;;;;;5070792;27;49126;-69
2022/04/18 00:40:24;;;;;;;;;4.00;2.75;;;;;;;;5070955;28;50592;-70
2022/04/18 00:42:50;;;;;;;;;2.25;2.25;;;;;;;;5071060;28;49916;-70
2022/04/18 00:45:15;;;;;;;;;1.50;1.50;;;;;;;;5070852;28;50052;-70
2022/04/18 00:47:40;;;;;;;;;2.00;2.00;;;;;;;;5071166;28;49926;-70
2022/04/18 00:50:06;;;;;;;;;1.00;1.00;;;;;;;;5071052;28;49872;-70
2022/04/18 00:52:32;;;;;;;;;2.50;1.75;;;;;;;;5071046;27;49787;-70
2022/04/18 00:55:00;;;;;;;;;3.25;3.25;;;;;;;;5070502;28;49993;-69
2022/04/18 00:57:26;;;;;;;;;2.00;2.00;;;;;;;;5046182;28;49859;-70
2022/04/18 00:59:51;;;;;;;;;3.25;2.50;;;;;;;;5063973;28;49931;-70
2022/04/18 01:02:17;;;;;;;;;1.75;1.75;;;;;;;;5052983;28;49998;-70
2022/04/18 01:04:42;;;;;;;;;2.25;2.00;;;;;;;;5070536;28;50395;-71
2022/04/18 01:07:08;;;;;;;;;2.00;2.00;;;;;;;;5070618;28;49583;-73
2022/04/18 01:09:33;;;;;;;;;5.00;4.25;;;;;;;;5073522;28;49594;-75
2022/04/18 01:11:59;;;;;;;;;1.75;1.75;;;;;;;;5072364;28;49893;-72
2022/04/18 01:14:24;;;;;;;;;2.25;2.25;;;;;;;;5069919;28;51390;-75
2022/04/18 01:16:49;;;;;;;;;2.00;2.00;;;;;;;;5069479;28;49729;-74
2022/04/18 01:19:14;;;;;;;;;2.00;2.00;;;;;;;;5052392;28;50078;-70
2022/04/18 01:21:40;;;;;;;;;3.00;3.00;;;;;;;;5070797;28;50021;-70
2022/04/18 01:28:58;;;;;;;;;1.25;1.25;;;;;;;;5070400;28;50327;-73
2022/04/18 01:29:34;;;;;;;;;2.50;2.50;;;;;;;;5070352;27;50171;-74
2022/04/18 01:31:59;;;;;;;;;3.00;3.00;;;;;;;;5070631;28;49747;-74
2022/04/18 01:34:24;;;;;;;;;1.50;1.50;;;;;;;;5070046;28;49919;-72
2022/04/18 01:36:50;;;;;;;;;4.00;3.00;;;;;;;;5070379;28;49795;-70
2022/04/18 01:39:15;;;;;;;;;3.00;3.00;;;;;;;;5052213;28;49522;-71
2022/04/18 01:41:40;;;;;;;;;2.75;2.75;;;;;;;;5070469;28;50287;-70
2022/04/18 01:44:06;;;;;;;;;6.50;4.00;;;;;;;;5070287;28;51595;-70
2022/04/18 01:46:31;;;;;;;;;3.75;3.75;;;;;;;;5073756;28;49754;-69
2022/04/18 01:48:56;;;;;;;;;3.00;3.00;;;;;;;;5073749;27;49894;-70
2022/04/18 01:51:22;;;;;;;;;4.25;3.75;;;;;;;;5073849;28;49605;-71
2022/04/18 01:53:47;;;;;;;;;4.25;4.25;;;;;;;;5073139;27;50665;-69
2022/04/18 01:56:12;;;;;;;;;6.00;4.00;;;;;;;;5073659;28;49843;-69
2022/04/18 01:58:37;;;;;;;;;4.00;3.00;;;;;;;;5073620;27;50078;-69
2022/04/18 02:01:03;;;;;;;;;3.75;3.75;;;;;;;;5073757;28;50051;-69
2022/04/18 02:03:28;;;;;;;;;4.00;2.50;;;;;;;;5073414;27;51274;-69
2022/04/18 02:05:55;;;;;;;;;3.00;3.00;;;;;;;;5073397;28;49950;-69
2022/04/18 02:08:22;;;;;;;;;2.75;2.75;;;;;;;;5073440;27;49623;-68
2022/04/18 02:10:47;;;;;;;;;3.00;3.00;;;;;;;;5073612;28;49855;-69
2022/04/18 02:13:13;;;;;;;;;4.75;3.00;;;;;;;;5073196;27;49784;-70
2022/04/18 02:15:38;;;;;;;;;4.50;2.75;;;;;;;;5073637;28;49703;-69
2022/04/18 02:18:04;;;;;;;;;3.75;3.75;;;;;;;;5074017;27;49890;-69
2022/04/18 02:20:29;;;;;;;;;4.25;3.00;;;;;;;;5073724;28;49792;-71
2022/04/18 02:22:56;;;;;;;;;4.00;4.00;;;;;;;;5073106;28;50154;-69
2022/04/18 02:25:21;;;;;;;;;3.50;3.00;;;;;;;;5073160;27;49736;-70
2022/04/18 02:27:46;;;;;;;;;2.25;2.25;;;;;;;;5072875;28;49625;-70
2022/04/18 02:30:12;;;;;;;;;6.00;4.75;;;;;;;;5073215;28;50210;-71
2022/04/18 02:32:47;;;;;;;;;2.75;2.50;;;;;;;;5072889;27;50018;-69
2022/04/18 02:35:12;;;;;;;;;3.75;3.75;;;;;;;;5054884;28;49635;-74
2022/04/18 02:37:37;;;;;;;;;2.50;2.50;;;;;;;;5073036;28;49707;-71
2022/04/18 02:40:03;;;;;;;;;9.00;5.00;;;;;;;;5073201;28;49823;-69
2022/04/18 02:42:28;;;;;;;;;2.50;1.00;;;;;;;;5072850;28;50437;-72
2022/04/18 02:44:53;;;;;;;;;5.00;3.00;;;;;;;;5072282;28;49826;-70
2022/04/18 02:47:18;;;;;;;;;4.00;3.75;;;;;;;;5072893;28;50141;-73
2022/04/18 02:49:44;;;;;;;;;3.00;3.00;;;;;;;;5073100;28;49984;-70
2022/04/18 02:52:09;;;;;;;;;5.00;5.00;;;;;;;;5072740;28;50526;-69
2022/04/18 02:54:34;;;;;;;;;5.25;4.25;;;;;;;;5054211;28;49688;-72
2022/04/18 02:56:59;;;;;;;;;7.25;5.75;;;;;;;;5072005;27;49958;-72
2022/04/18 02:59:25;;;;;;;;;5.75;5.00;;;;;;;;5072769;27;49887;-71
2022/04/18 03:01:50;;;;;;;;;3.75;3.25;;;;;;;;5072378;27;49750;-69
2022/04/18 03:04:15;;;;;;;;;3.50;2.50;;;;;;;;5054123;28;49875;-72
2022/04/18 03:06:40;;;;;;;;;5.25;4.25;;;;;;;;5072448;28;49950;-74
2022/04/18 03:09:06;;;;;;;;;7.50;5.00;;;;;;;;5072649;28;49788;-69
2022/04/18 03:11:31;;;;;;;;;8.00;5.50;;;;;;;;5072397;27;49915;-72
2022/04/18 03:13:56;;;;;;;;;4.75;4.00;;;;;;;;5072335;28;49909;-73
2022/04/18 03:16:24;;;;;;;;;4.25;4.25;;;;;;;;5072564;27;49807;-69
2022/04/18 03:18:49;;;;;;;;;4.00;3.25;;;;;;;;5072583;28;49930;-74
2022/04/18 03:21:16;;;;;;;;;5.50;4.25;;;;;;;;5053644;28;51262;-69
2022/04/18 03:23:44;;;;;;;;;5.25;3.00;;;;;;;;5072145;28;49809;-72
2022/04/18 03:26:09;;;;;;;;;3.25;2.75;;;;;;;;5072437;27;49736;-72
2022/04/18 03:28:34;;;;;;;;;6.50;4.00;;;;;;;;5072233;28;49908;-71
2022/04/18 03:31:00;;;;;;;;;3.75;3.75;;;;;;;;5072441;28;49895;-72
2022/04/18 03:33:25;;;;;;;;;4.25;4.25;;;;;;;;5072522;28;50044;-72
2022/04/18 03:41:18;;;;;;;;;1.25;1.25;;;;;;;;5067630;28;49964;-73
2022/04/18 03:43:43;;;;;;;;;3.50;3.50;;;;;;;;5071769;28;49704;-71
2022/04/18 03:46:08;;;;;;;;;3.25;3.00;;;;;;;;5072098;28;49969;-76
2022/04/18 03:48:33;;;;;;;;;5.00;4.00;;;;;;;;5072267;28;49901;-71
2022/04/18 03:50:59;;;;;;;;;4.75;4.75;;;;;;;;5071831;28;50837;-75
2022/04/18 03:53:24;;;;;;;;;7.75;6.75;;;;;;;;5071774;28;49750;-71
2022/04/18 03:55:49;;;;;;;;;4.00;4.00;;;;;;;;5071871;27;49989;-69
2022/04/18 03:58:15;;;;;;;;;2.00;2.00;;;;;;;;5071608;27;49784;-70
2022/04/18 04:00:42;;;;;;;;;6.50;5.25;;;;;;;;5071492;27;49829;-76
2022/04/18 04:03:07;;;;;;;;;4.25;4.25;;;;;;;;5071740;28;49710;-70
2022/04/18 04:05:32;;;;;;;;;5.25;3.50;;;;;;;;5071691;28;49812;-73
2022/04/18 04:07:58;;;;;;;;;4.75;4.50;;;;;;;;5053234;28;49781;-71
2022/04/18 04:10:23;;;;;;;;;2.00;1.00;;;;;;;;5071325;28;51157;-70
2022/04/18 04:12:48;;;;;;;;;4.75;4.75;;;;;;;;5071507;28;49608;-71
2022/04/18 04:15:13;;;;;;;;;4.50;4.50;;;;;;;;5071206;28;49747;-71
2022/04/18 04:17:39;;;;;;;;;7.00;7.00;;;;;;;;5071499;28;49871;-70
2022/04/18 04:20:04;;;;;;;;;3.00;3.00;;;;;;;;5071340;28;51427;-69
2022/04/18 04:22:30;;;;;;;;;4.00;3.00;;;;;;;;5071490;28;49618;-70
2022/04/18 04:24:55;;;;;;;;;4.25;4.25;;;;;;;;5071359;28;50037;-70
2022/04/18 04:27:21;;;;;;;;;4.25;4.25;;;;;;;;5071831;27;49844;-70
2022/04/18 04:29:46;;;;;;;;;4.00;4.00;;;;;;;;5052503;28;51077;-71
2022/04/18 04:32:11;;;;;;;;;4.75;4.75;;;;;;;;5071182;28;49711;-71
2022/04/18 04:34:36;;;;;;;;;4.50;3.25;;;;;;;;5071117;28;49581;-71
2022/04/18 04:37:01;;;;;;;;;5.00;2.00;;;;;;;;5071153;27;49826;-71
2022/04/18 04:39:27;;;;;;;;;5.00;5.00;;;;;;;;5071043;28;50663;-71
2022/04/18 04:41:52;;;;;;;;;4.00;4.00;;;;;;;;5071181;28;49694;-70
2022/04/18 04:44:17;;;;;;;;;3.75;3.75;;;;;;;;5071182;28;49782;-69
2022/04/18 04:46:45;;;;;;;;;3.75;3.75;;;;;;;;5052746;28;50039;-70
2022/04/18 04:49:11;;;;;;;;;3.00;3.00;;;;;;;;5070338;28;49963;-70
2022/04/18 04:51:36;;;;;;;;;4.00;4.00;;;;;;;;5052561;28;49950;-70
2022/04/18 04:54:01;;;;;;;;;4.50;4.50;;;;;;;;5070741;28;49859;-70
2022/04/18 04:56:28;;;;;;;;;3.75;3.50;;;;;;;;5070969;28;49783;-69
2022/04/18 04:58:54;;;;;;;;;4.00;4.00;;;;;;;;5070701;28;50600;-70
2022/04/18 05:01:19;;;;;;;;;4.75;4.75;;;;;;;;5070526;27;49852;-70
2022/04/18 05:03:45;;;;;;;;;3.00;3.00;;;;;;;;5070934;28;49988;-70
2022/04/18 05:06:11;;;;;;;;;4.00;4.00;;;;;;;;5071066;28;49796;-70
2022/04/18 05:08:36;;;;;;;;;5.25;5.00;;;;;;;;5070294;27;49942;-70
2022/04/18 05:11:02;;;;;;;;;7.50;6.50;;;;;;;;5070543;28;49895;-70
2022/04/18 05:13:27;;;;;;;;;7.25;6.00;;;;;;;;5070666;28;49800;-70
2022/04/18 05:15:52;;;;;;;;;6.50;4.75;;;;;;;;5052345;28;49923;-70
2022/04/18 05:18:17;;;;;;;;;3.50;3.25;;;;;;;;5070491;28;50956;-70
2022/04/18 05:20:44;;;;;;;;;5.75;5.00;;;;;;;;5070120;28;49732;-70
2022/04/18 05:23:11;;;;;;;;;8.00;5.50;;;;;;;;5070438;27;49813;-70
2022/04/18 05:25:37;;;;;;;;;4.50;4.50;;;;;;;;5070667;28;49688;-70
2022/04/18 05:28:02;;;;;;;;;9.00;7.25;;;;;;;;5070141;28;50045;-70
2022/04/18 05:30:27;;;;;;;;;5.75;5.75;;;;;;;;5070223;28;49765;-70
2022/04/18 05:32:52;;;;;;;;;5.25;4.00;;;;;;;;5070493;27;49967;-70
2022/04/18 05:35:17;;;;;;;;;5.50;5.50;;;;;;;;5070759;28;49684;-70
2022/04/18 05:37:43;;;;;;;;;7.00;7.00;;;;;;;;5070115;28;49776;-71
2022/04/18 05:40:08;;;;;;;;;6.25;6.25;;;;;;;;5070526;28;50121;-69
2022/04/18 05:42:34;;;;;;;;;8.50;6.25;;;;;;;;5070249;28;49656;-70
2022/04/18 05:44:59;;;;;;;;;6.75;6.50;;;;;;;;5070182;28;49831;-70
2022/04/18 05:47:24;;;;;;;;;6.25;6.00;;;;;;;;5069902;28;50864;-69
2022/04/18 05:49:49;;;;;;;;;6.75;5.50;;;;;;;;5070059;28;49657;-69
2022/04/18 05:52:15;;;;;;;;;7.50;7.00;;;;;;;;5070128;28;49737;-70
2022/04/18 05:54:40;;;;;;;;;10.50;8.50;;;;;;;;5070248;27;49832;-70
2022/04/18 05:57:06;;;;;;;;;6.75;5.50;;;;;;;;5069954;28;50379;-69
2022/04/18 05:59:32;;;;;;;;;5.50;5.50;;;;;;;;5051449;28;49783;-70
2022/04/18 06:01:57;;;;;;;;;9.75;7.75;;;;;;;;5070019;28;49765;-71
2022/04/18 06:04:22;;;;;;;;;9.00;8.00;;;;;;;;5070108;28;49892;-71
2022/04/18 06:06:48;;;;;;;;;13.00;12.00;;;;;;;;5051193;28;50735;-73
2022/04/18 06:09:13;;;;;;;;;14.00;11.25;;;;;;;;5069777;27;49902;-71
2022/04/18 06:11:38;;;;;;;;;13.25;12.25;;;;;;;;5069948;28;49790;-77
2022/04/18 06:14:03;;;;;;;;;14.75;13.50;;;;;;;;5051689;28;49737;-72
2022/04/18 06:16:29;;;;;;;;;14.75;14.75;;;;;;;;5069526;28;50364;-71
2022/04/18 06:18:54;;;;;;;;;17.75;12.50;;;;;;;;5069616;28;49933;-77
2022/04/18 06:21:19;;;;;;;;;12.25;12.00;;;;;;;;5069658;27;49873;-74
2022/04/18 06:23:44;;;;;;;;;15.00;12.25;;;;;;;;5069824;28;50024;-71
2022/04/18 06:26:10;;;;;;;;;11.50;9.75;;;;;;;;5069437;28;49756;-75
2022/04/18 06:28:35;;;;;;;;;13.50;11.25;;;;;;;;5069441;28;49915;-75
2022/04/18 06:31:00;;;;;;;;;14.50;13.25;;;;;;;;5069790;28;49981;-75
2022/04/18 06:33:25;;;;;;;;;14.25;10.00;;;;;;;;5073357;27;49777;-69
2022/04/18 06:35:51;;;;;;;;;10.25;8.00;;;;;;;;5072629;27;50416;-73
2022/04/18 06:38:16;;;;;;;;;10.00;8.25;;;;;;;;5072810;28;49966;-75
2022/04/18 06:40:42;;;;;;;;;15.00;9.00;;;;;;;;5072842;28;49781;-73
2022/04/18 06:43:07;;;;;;;;;4.00;4.00;;;;;;;;5073041;28;50054;-70
2022/04/18 06:45:32;;;;;;;;;7.25;7.25;;;;;;;;5072524;27;50801;-69
2022/04/18 06:47:57;;;;;;;;;7.75;7.75;;;;;;;;5072919;27;49786;-70
2022/04/18 06:50:23;;;;;;;;;4.75;4.75;;;;;;;;5072889;27;49903;-70
2022/04/18 06:52:51;;;;;;;;;7.00;5.25;;;;;;;;5073032;27;49623;-70
2022/04/18 06:55:16;;;;;;;;;3.50;3.50;;;;;;;;5072502;27;50612;-72
2022/04/18 06:57:42;;;;;;;;;5.25;5.25;;;;;;;;5072525;28;49659;-70
2022/04/18 07:00:07;;;;;;;;;7.00;4.50;;;;;;;;5072430;28;49617;-70
2022/04/18 07:02:33;;;;;;;;;6.50;6.50;;;;;;;;5072788;27;49867;-70
2022/04/18 07:04:58;;;;;;;;;4.25;4.25;;;;;;;;5072489;28;49966;-71
2022/04/18 07:07:23;;;;;;;;;7.00;7.00;;;;;;;;5072816;27;49688;-71
2022/04/18 07:09:49;;;;;;;;;8.00;7.25;;;;;;;;5072441;28;49781;-69
2022/04/18 07:12:14;;;;;;;;;10.25;7.00;;;;;;;;5072801;27;50029;-70
2022/04/18 07:14:41;;;;;;;;;9.25;9.00;;;;;;;;5072022;27;50777;-75
2022/04/18 07:17:09;;;;;;;;;4.25;3.50;;;;;;;;5072255;28;49846;-70
2022/04/18 07:19:34;;;;;;;;;4.75;4.75;;;;;;;;5065893;27;49852;-71
2022/04/18 07:22:00;;;;;;;;;5.50;5.50;;;;;;;;5072526;27;49939;-75
2022/04/18 07:24:25;;;;;;;;;7.25;5.00;;;;;;;;5072385;27;50268;-72
2022/04/18 07:26:50;;;;;;;;;6.75;4.50;;;;;;;;5072343;28;50031;-71
2022/04/18 07:29:16;;;;;;;;;7.00;7.00;;;;;;;;5072275;28;49959;-71
2022/04/18 07:31:41;;;;;;;;;5.00;5.00;;;;;;;;5072469;28;49980;-69
2022/04/18 07:34:06;;;;;;;;;9.50;7.25;;;;;;;;5071584;28;49781;-71
2022/04/18 07:36:31;;;;;;;;;5.00;5.00;;;;;;;;5072089;28;49781;-69
2022/04/18 07:38:57;;;;;;;;;6.25;6.25;;;;;;;;5072030;28;49692;-69
2022/04/18 07:41:24;;;;;;;;;7.00;5.00;;;;;;;;5072326;27;49685;-70
2022/04/18 07:43:49;;;;;;;;;8.00;8.00;;;;;;;;5071245;27;50070;-71
2022/04/18 07:46:15;;;;;;;;;7.00;7.00;;;;;;;;5071701;28;49762;-69
2022/04/18 07:48:41;;;;;;;;;7.00;5.00;;;;;;;;5071679;27;49878;-70
2022/04/18 07:53:50;;;;;;;;;5.50;5.50;;;;;;;;5073322;27;50174;-68
2022/04/18 07:56:15;;;;;;;;;9.25;7.75;;;;;;;;5082654;27;49696;-69
2022/04/18 07:58:40;;;;;;;;;8.00;8.00;;;;;;;;5082615;27;49721;-68
2022/04/18 08:01:06;;;;;;;;;3.25;2.75;;;;;;;;5081917;27;49717;-69
2022/04/18 08:03:34;;;;;;;;;9.75;9.75;;;;;;;;5082342;27;50052;-68
2022/04/18 08:05:59;;;;;;;;;8.50;8.00;;;;;;;;5065559;28;49695;-68
2022/04/18 08:08:25;;;;;;;;;8.50;5.00;;;;;;;;5053751;28;49850;-65
2022/04/18 08:10:50;;;;;;;;;7.00;7.00;;;;;;;;5070761;28;49903;-71
2022/04/18 08:13:15;;;;;;;;;8.75;8.75;;;;;;;;5070823;28;50047;-73
2022/04/18 08:15:40;;;;;;;;;11.00;11.00;;;;;;;;5071107;28;49812;-64
2022/04/18 08:18:06;;;;;;;;;11.75;9.50;;;;;;;;5070508;28;49751;-69
2022/04/18 08:20:31;;;;;;;;;10.75;10.75;;;;;;;;5069694;28;49999;-73
2022/04/18 08:22:56;;;;;;;;;10.75;9.75;;;;;;;;5070936;28;50498;-73
2022/04/18 08:25:21;;;;;;;;;12.00;12.00;;;;;;;;5071429;28;50083;-72
2022/04/18 08:27:46;;;;;;;;;15.50;14.00;;;;;;;;5071423;28;49653;-67
2022/04/18 08:30:12;;;;;;;;;9.25;8.00;;;;;;;;5071026;28;49696;-62
2022/04/18 08:32:38;;;;;;;;;6.00;6.00;;;;;;;;5071013;28;49845;-63
2022/04/18 08:35:03;;;;;;;;;8.00;8.00;;;;;;;;5071393;28;50184;-67
2022/04/18 08:37:29;;;;;;;;;9.75;9.75;;;;;;;;5070480;28;49546;-73
2022/04/18 08:39:54;;;;;;;;;9.50;9.00;;;;;;;;5071336;28;50021;-69
2022/04/18 08:42:21;;;;;;;;;8.75;8.50;;;;;;;;5070906;28;50888;-68
2022/04/18 08:44:47;;;;;;;;;7.50;7.00;;;;;;;;5070643;27;50037;-68
2022/04/18 08:52:43;;;;;;;;;12.25;11.25;;;;;;;;5070984;28;49785;-68
2022/04/18 08:52:45;;;;;;;;;7.75;7.75;;;;;;;;5070714;28;49848;-70
2022/04/18 08:55:11;;;;;;;;;10.00;10.00;;;;;;;;5069786;28;49747;-70
2022/04/18 08:57:36;;;;;;;;;10.75;9.75;;;;;;;;5070901;27;49680;-67
2022/04/18 09:00:02;;;;;;;;;10.50;10.50;;;;;;;;5070790;28;49617;-71
2022/04/18 09:02:27;;;;;;;;;8.25;8.25;;;;;;;;5070499;27;49711;-72
2022/04/18 09:04:53;;;;;;;;;10.75;10.75;;;;;;;;5070574;28;49788;-69
2022/04/18 09:07:18;;;;;;;;;10.00;10.00;;;;;;;;5070749;28;49770;-70
2022/04/18 09:09:43;;;;;;;;;10.00;10.00;;;;;;;;5070714;28;49880;-68
2022/04/18 09:12:19;;;;;;;;;6.00;4.75;;;;;;;;5070692;28;50633;-71
2022/04/18 09:14:48;;;;;;;;;8.25;8.25;;;;;;;;5065162;28;49921;-71
2022/04/18 09:17:26;;;;;;;;;10.25;10.25;;;;;;;;5052377;28;49809;-68
2022/04/18 09:20:02;;;;;;;;;12.50;11.25;;;;;;;;5070712;28;49806;-69
2022/04/18 09:22:27;;;;;;;;;10.25;10.00;;;;;;;;5070247;28;49840;-74
2022/04/18 09:24:54;;;;;;;;;8.50;8.00;;;;;;;;5070430;28;49746;-66
2022/04/18 09:27:29;;;;;;;;;11.00;7.75;;;;;;;;5070664;28;49780;-69
2022/04/18 09:30:07;;;;;;;;;11.00;8.00;;;;;;;;5070338;28;49818;-72
2022/04/18 09:32:33;;;;;;;;;12.25;10.50;;;;;;;;5070271;27;50713;-63
2022/04/18 09:35:02;;;;;;;;;10.25;10.25;;;;;;;;5070306;28;49765;-64
2022/04/18 09:37:30;;;;;;;;;10.00;8.00;;;;;;;;5070221;28;49773;-62
2022/04/18 09:39:56;;;;;;;;;11.75;10.00;;;;;;;;5070417;28;49678;-63
2022/04/18 09:42:22;;;;;;;;;7.00;7.00;;;;;;;;5069933;28;51326;-63
2022/04/18 09:44:47;;;;;;;;;9.25;9.25;;;;;;;;5069950;28;49875;-64
2022/04/18 09:47:16;;;;;;;;;12.00;10.00;;;;;;;;5070429;28;49634;-63
2022/04/18 09:49:41;;;;;;;;;11.25;8.25;;;;;;;;5070545;28;49730;-64
2022/04/18 09:52:11;;;;;;;;;8.00;8.00;;;;;;;;5069007;28;50050;-62
2022/04/18 09:54:41;;;;;;;;;13.00;10.50;;;;;;;;5074957;27;49781;-63
2022/04/18 09:57:06;;;;;;;;;9.75;9.75;;;;;;;;5073453;27;49764;-70
2022/04/18 09:59:32;;;;;;;;;11.00;10.25;;;;;;;;5054459;27;49974;-68
2022/04/18 10:01:58;;;;;;;;;10.00;9.00;;;;;;;;5077300;27;49835;-67
2022/04/18 10:04:24;;;;;;;;;10.00;8.00;;;;;;;;5079148;27;49886;-74
2022/04/18 10:06:52;;;;;;;;;11.00;10.00;;;;;;;;5078004;27;49676;-75
2022/04/18 10:09:17;;;;;;;;;12.75;12.00;;;;;;;;5078724;27;49880;-67
2022/04/18 10:11:43;;;;;;;;;13.75;9.50;;;;;;;;5074272;28;50899;-66
2022/04/18 10:14:08;;;;;;;;;9.25;8.50;;;;;;;;5074552;28;49940;-66
2022/04/18 10:16:33;;;;;;;;;10.25;7.75;;;;;;;;5075659;28;50042;-70
2022/04/18 10:19:02;;;;;;;;;9.25;9.25;;;;;;;;5087826;28;49821;-68
2022/04/18 10:21:29;;;;;;;;;13.50;12.50;;;;;;;;5085435;28;49532;-68
2022/04/18 10:23:54;;;;;;;;;14.25;12.25;;;;;;;;5072314;27;49903;-77
2022/04/18 10:26:25;;;;;;;;;10.60;10.00;;;;;;;;5072670;28;50027;-74
2022/04/18 10:28:53;;;;;;;;;11.00;11.00;;;;;;;;5073397;28;49711;-73
2022/04/18 10:31:22;;;;;;;;;13.75;12.50;;;;;;;;5079478;27;50296;-69
2022/04/18 10:33:47;;;;;;;;;10.00;9.50;;;;;;;;5084585;28;49786;-72
2022/04/18 10:36:12;;;;;;;;;9.00;9.00;;;;;;;;5076922;28;49850;-73
2022/04/18 10:38:41;;;;;;;;;7.00;7.00;;;;;;;;5082707;28;49639;-73
2022/04/18 10:41:26;;;;;;;;;8.75;8.75;;;;;;;;5086962;27;50063;-70
2022/04/18 10:44:31;;;;;;;;;6.75;6.00;;;;;;;;5073680;27;49935;-74
2022/04/18 10:46:56;;;;;;;;;7.50;7.50;;;;;;;;5069147;27;49797;-67
2022/04/18 10:49:27;;;;;;;;;9.00;9.00;;;;;;;;5074078;27;49621;-71
2022/04/18 10:51:53;;;;;;;;;8.25;8.25;;;;;;;;5060585;27;51376;-71
2022/04/18 10:54:23;;;;;;;;;4.50;4.50;;;;;;;;5076043;28;49944;-61
2022/04/18 10:56:52;;;;;;;;;25.00;23.50;;;;;;;;5075209;28;49832;-72
2022/04/18 10:59:27;;;;;;;;;29.00;25.75;;;;;;;;5082070;28;50879;-73
2022/04/18 11:01:53;;;;;;;;;11.75;10.50;;;;;;;;5076643;28;50387;-70
2022/04/18 11:04:23;;;;;;;;;6.00;6.00;;;;;;;;5071992;28;49631;-63
2022/04/18 11:06:49;;;;;;;;;8.50;6.50;;;;;;;;5072633;28;49730;-64
2022/04/18 11:09:20;;;;;;;;;6.50;6.25;;;;;;;;5072691;28;49714;-63
2022/04/18 11:11:45;;;;;;;;;4.50;4.50;;;;;;;;5072097;28;50948;-65
2022/04/18 11:14:13;;;;;;;;;5.25;5.25;;;;;;;;5072149;27;49836;-68
2022/04/18 11:16:41;;;;;;;;;6.25;5.25;;;;;;;;5071696;28;49677;-66
2022/04/18 11:19:07;;;;;;;;;6.50;5.00;;;;;;;;5072400;27;49917;-67
2022/04/18 11:21:51;;;;;;;;;8.25;7.25;;;;;;;;5072427;28;49777;-67
2022/04/18 11:24:35;;;;;;;;;5.50;5.50;;;;;;;;5072348;28;50001;-70
2022/04/18 11:27:00;;;;;;;;;6.75;6.75;;;;;;;;5065608;28;50178;-76
2022/04/18 11:29:26;;;;;;;;;5.75;5.75;;;;;;;;5073742;27;49968;-68
2022/04/18 11:31:52;;;;;;;;;6.50;5.00;;;;;;;;5073211;28;49995;-72
2022/04/18 11:34:17;;;;;;;;;4.50;4.25;;;;;;;;5075975;28;49741;-70
2022/04/18 11:36:43;;;;;;;;;4.00;4.00;;;;;;;;5072388;28;49925;-70
2022/04/18 11:39:10;;;;;;;;;3.75;3.50;;;;;;;;5072141;28;49840;-68
2022/04/18 11:41:35;;;;;;;;;4.25;4.25;;;;;;;;5072712;27;50858;-71
2022/04/18 11:44:02;;;;;;;;;4.75;3.00;;;;;;;;5071490;28;49568;-69
2022/04/18 11:46:28;;;;;;;;;7.00;4.25;;;;;;;;5071935;27;49499;-65
2022/04/18 11:48:54;;;;;;;;;6.00;6.00;;;;;;;;5072025;28;49787;-72
2022/04/18 11:51:41;;;;;;;;;5.75;5.75;;;;;;;;5071902;28;49678;-72
2022/04/18 11:54:06;;;;;;;;;6.75;5.50;;;;;;;;5071635;28;50318;-72
2022/04/18 11:56:31;;;;;;;;;7.25;6.00;;;;;;;;5071944;28;49836;-72
2022/04/18 11:58:56;;;;;;;;;5.00;4.25;;;;;;;;5071662;28;49774;-73
2022/04/18 12:06:50;;;;;;;;;4.75;4.50;;;;;;;;5071498;28;49890;-72
2022/04/18 12:09:17;;;;;;;;;6.00;5.00;;;;;;;;5071782;28;49833;-72
2022/04/18 12:11:42;;;;;;;;;8.00;7.75;;;;;;;;5071370;27;50434;-73
2022/04/18 12:14:07;;;;;;;;;5.00;5.00;;;;;;;;5071498;28;49979;-73
2022/04/18 12:16:33;;;;;;;;;5.50;4.00;;;;;;;;5071536;27;49679;-73
2022/04/18 12:18:58;;;;;;;;;5.00;5.00;;;;;;;;5071522;28;49667;-72
2022/04/18 12:21:24;;;;;;;;;9.00;6.75;;;;;;;;5071138;28;49863;-73
2022/04/18 12:23:57;;;;;;;;;4.75;4.75;;;;;;;;5071215;28;49706;-73
2022/04/18 12:26:26;;;;;;;;;7.00;6.50;;;;;;;;5071415;28;49988;-72
2022/04/18 12:29:00;;;;;;;;;6.50;6.00;;;;;;;;5071142;27;49818;-72
2022/04/18 12:31:25;;;;;;;;;4.25;4.25;;;;;;;;5071268;28;49662;-73
2022/04/18 12:33:50;;;;;;;;;7.00;5.75;;;;;;;;5071166;28;49918;-67
2022/04/18 12:36:26;;;;;;;;;3.00;3.00;;;;;;;;5070431;28;49595;-66
2022/04/18 12:38:51;;;;;;;;;5.50;5.00;;;;;;;;5071307;28;49704;-67
2022/04/18 12:41:30;;;;;;;;;4.50;3.25;;;;;;;;5070861;27;49680;-66
2022/04/18 12:43:55;;;;;;;;;3.25;3.25;;;;;;;;5071065;28;49865;-67
2022/04/18 12:46:33;;;;;;;;;5.50;5.00;;;;;;;;5052677;27;49845;-67
2022/04/18 12:49:03;;;;;;;;;5.50;4.25;;;;;;;;5071331;28;50002;-67
2022/04/18 12:51:29;;;;;;;;;5.50;4.75;;;;;;;;5070817;28;50595;-68
2022/04/18 12:53:55;;;;;;;;;5.00;5.00;;;;;;;;5070567;27;49923;-67
2022/04/18 12:56:24;;;;;;;;;3.25;3.00;;;;;;;;5070816;28;50010;-67
2022/04/18 12:58:56;;;;;;;;;3.75;3.75;;;;;;;;5052354;28;50084;-67
2022/04/18 13:01:24;;;;;;;;;3.00;3.00;;;;;;;;5070696;28;50026;-69
2022/04/18 13:03:51;;;;;;;;;3.00;3.00;;;;;;;;5070308;28;49625;-67
2022/04/18 13:06:29;;;;;;;;;2.75;2.75;;;;;;;;5070875;28;49927;-67
2022/04/18 13:08:56;;;;;;;;;3.50;3.50;;;;;;;;5070734;28;49795;-67
2022/04/18 13:11:21;;;;;;;;;4.00;4.00;;;;;;;;5070522;28;49806;-67
2022/04/18 13:13:46;;;;;;;;;5.00;4.00;;;;;;;;5052132;28;50019;-66
2022/04/18 13:16:22;;;;;;;;;4.50;4.50;;;;;;;;5070640;28;50216;-68
2022/04/18 13:18:55;;;;;;;;;4.00;4.00;;;;;;;;5070518;28;49846;-68
2022/04/18 13:21:21;;;;;;;;;2.50;2.50;;;;;;;;5070292;27;49783;-68
2022/04/18 13:23:46;;;;;;;;;4.50;4.50;;;;;;;;5052217;28;49805;-67
2022/04/18 13:26:11;;;;;;;;;2.00;2.00;;;;;;;;5070730;28;50877;-66
2022/04/18 13:28:38;;;;;;;;;3.00;3.00;;;;;;;;5070626;28;49941;-66
2022/04/18 13:31:03;;;;;;;;;4.75;4.75;;;;;;;;5069780;27;50774;-77
2022/04/18 13:33:29;;;;;;;;;1.50;1.00;;;;;;;;5051671;28;49894;-77
2022/04/18 13:38:38;;;;;;;;;3.25;3.25;;;;;;;;5064374;28;49694;-76
2022/04/18 13:41:03;;;;;;;;;3.25;3.25;;;;;;;;5053676;28;52106;-77
2022/04/18 13:43:28;;;;;;;;;3.50;3.00;;;;;;;;5073925;27;49738;-76
2022/04/18 13:45:54;;;;;;;;;4.75;3.75;;;;;;;;5073704;27;49969;-67
2022/04/18 13:48:21;;;;;;;;;3.25;3.25;;;;;;;;5055640;28;50103;-75
2022/04/18 13:50:46;;;;;;;;;4.00;4.00;;;;;;;;5073497;27;50301;-76
2022/04/18 13:53:12;;;;;;;;;4.00;4.00;;;;;;;;5073492;28;49739;-76
2022/04/18 13:55:37;;;;;;;;;5.75;4.25;;;;;;;;5073598;28;50151;-76
2022/04/18 13:58:02;;;;;;;;;3.25;3.25;;;;;;;;5074800;27;49828;-80
2022/04/18 14:00:28;;;;;;;;;2.75;2.75;;;;;;;;5074276;27;49681;-75
2022/04/18 14:02:53;;;;;;;;;4.00;4.00;;;;;;;;5074487;27;49603;-80
2022/04/18 14:05:22;;;;;;;;;5.50;3.00;;;;;;;;5074501;27;49636;-78
2022/04/18 14:07:50;;;;;;;;;2.25;2.25;;;;;;;;5075760;27;49948;-86
2022/04/18 14:10:15;;;;;;;;;5.00;5.00;;;;;;;;5073442;27;49804;-74
2022/04/18 14:12:40;;;;;;;;;4.50;4.50;;;;;;;;5073432;28;49726;-74
2022/04/18 14:20:33;;;;;;;;;2.75;2.75;;;;;;;;5073419;28;50360;-73
2022/04/18 14:22:59;;;;;;;;;2.75;2.75;;;;;;;;5073490;28;49792;-77
2022/04/18 14:25:28;;;;;;;;;4.00;4.00;;;;;;;;5076667;28;49557;-67
2022/04/18 14:27:53;;;;;;;;;4.75;3.25;;;;;;;;5075017;28;49766;-68
2022/04/18 14:30:18;;;;;;;;;2.50;2.50;;;;;;;;5075953;27;50614;-64
2022/04/18 14:32:44;;;;;;;;;2.50;2.25;;;;;;;;5073245;27;49971;-75
2022/04/18 14:35:09;;;;;;;;;3.75;2.00;;;;;;;;5073281;28;49963;-76
2022/04/18 14:37:36;;;;;;;;;2.00;2.00;;;;;;;;5073470;28;50181;-73
2022/04/18 14:40:01;;;;;;;;;2.00;2.00;;;;;;;;5054734;28;50050;-74
2022/04/18 14:42:28;;;;;;;;;2.00;2.00;;;;;;;;5073031;28;50022;-69
2022/04/18 14:44:53;;;;;;;;;2.75;2.25;;;;;;;;5072802;28;50010;-73
2022/04/18 14:47:19;;;;;;;;;3.00;3.00;;;;;;;;5057663;28;50025;-73
2022/04/18 14:49:44;;;;;;;;;1.25;1.25;;;;;;;;5072858;28;49888;-72
2022/04/18 14:52:10;;;;;;;;;2.25;2.25;;;;;;;;5073132;28;49891;-71
2022/04/18 14:54:35;;;;;;;;;2.00;2.00;;;;;;;;5072862;28;49761;-69
2022/04/18 14:57:01;;;;;;;;;1.75;1.75;;;;;;;;5073154;28;50062;-69
2022/04/18 14:59:26;;;;;;;;;3.75;2.00;;;;;;;;5072287;27;49856;-72
2022/04/18 15:01:51;;;;;;;;;2.00;2.00;;;;;;;;5072574;27;50009;-77